createdAt,value
2022-12-08T00:01:25.032Z,1.57
2022-12-08T00:04:26.662Z,1.57
2022-12-08T00:07:46.920Z,1.57
2022-12-08T00:10:50.317Z,1.55
2022-12-08T00:13:52.061Z,1.57
2022-12-08T00:16:54.634Z,1.57
2022-12-08T00:19:56.370Z,1.57
2022-12-08T00:23:01.765Z,1.56
2022-12-08T00:26:05.107Z,1.57
2022-12-08T00:29:06.979Z,1.56
2022-12-08T00:32:08.828Z,1.57
2022-12-08T00:35:10.488Z,1.58
2022-12-08T00:38:12.318Z,1.56
2022-12-08T00:41:16.560Z,1.56
2022-12-08T00:44:19.055Z,1.57
2022-12-08T00:47:24.664Z,1.58
2022-12-08T00:50:26.655Z,1.58
2022-12-08T00:53:28.270Z,1.58
2022-12-08T00:56:31.321Z,1.59
2022-12-08T00:59:33.203Z,1.58
2022-12-08T01:02:35.270Z,1.57
2022-12-08T01:05:36.942Z,1.56
2022-12-08T01:08:39.598Z,1.55
2022-12-08T01:11:44.626Z,1.52
2022-12-08T01:14:46.583Z,1.53
2022-12-08T01:17:48.219Z,1.51
2022-12-08T01:20:49.770Z,1.50
2022-12-08T01:23:51.555Z,1.50
2022-12-08T01:26:54.646Z,1.48
2022-12-08T01:29:56.332Z,1.48
2022-12-08T01:32:58.152Z,1.49
2022-12-08T01:36:02.964Z,1.48
2022-12-08T01:39:06.250Z,1.45
2022-12-08T01:42:18.685Z,1.44
2022-12-08T01:45:22.513Z,1.43
2022-12-08T01:48:26.029Z,1.42
2022-12-08T01:51:28.123Z,1.44
2022-12-08T01:54:32.057Z,1.43
2022-12-08T01:57:37.498Z,1.44
2022-12-08T02:00:39.784Z,1.45
2022-12-08T02:03:43.272Z,1.48
2022-12-08T02:06:45.511Z,1.50
2022-12-08T02:09:47.456Z,1.49
2022-12-08T02:12:51.943Z,1.49
2022-12-08T02:15:59.094Z,1.50
2022-12-08T02:19:30.388Z,1.50
2022-12-08T02:22:37.212Z,1.51
2022-12-08T02:25:44.899Z,1.53
2022-12-08T02:29:09.172Z,1.53
2022-12-08T02:32:24.653Z,1.53
2022-12-08T02:35:29.610Z,1.53
2022-12-08T02:38:44.269Z,1.52
2022-12-08T02:41:48.434Z,1.52
2022-12-08T02:44:52.783Z,1.50
2022-12-08T02:47:54.939Z,1.50
2022-12-08T02:50:57.943Z,1.51
2022-12-08T02:54:00.598Z,1.50
2022-12-08T02:57:12.254Z,1.51
2022-12-08T03:00:16.439Z,1.53
2022-12-08T03:03:24.759Z,1.51
2022-12-08T03:06:32.490Z,1.51
2022-12-08T03:09:36.188Z,1.51
2022-12-08T03:12:42.321Z,1.51
2022-12-08T03:15:46.822Z,1.53
2022-12-08T03:18:51.402Z,1.54
2022-12-08T03:22:03.239Z,1.54
2022-12-08T03:25:05.570Z,1.53
2022-12-08T03:28:07.396Z,1.52
2022-12-08T03:31:12.671Z,1.54
2022-12-08T03:34:15.191Z,1.54
2022-12-08T03:37:18.203Z,1.56
2022-12-08T03:40:20.504Z,1.56
2022-12-08T03:43:24.465Z,1.55
2022-12-08T03:49:27.599Z,1.54
2022-12-08T03:52:30.616Z,1.53
2022-12-08T03:55:32.170Z,1.53
2022-12-08T03:58:37.334Z,1.53
2022-12-08T04:01:39.323Z,1.52
2022-12-08T04:04:40.913Z,1.51
2022-12-08T04:07:44.063Z,1.50
2022-12-08T04:10:45.728Z,1.50
2022-12-08T04:13:47.407Z,1.52
2022-12-08T04:16:49.229Z,1.53
2022-12-08T04:19:50.838Z,1.56
2022-12-08T04:22:53.879Z,1.56
2022-12-08T04:25:55.551Z,1.54
2022-12-08T04:28:59.595Z,1.52
2022-12-08T04:32:01.363Z,1.54
2022-12-08T04:35:03.083Z,1.54
2022-12-08T04:38:06.227Z,1.56
2022-12-08T04:41:08.751Z,1.56
2022-12-08T04:44:12.726Z,1.57
2022-12-08T04:47:14.430Z,1.57
2022-12-08T04:50:16.412Z,1.59
2022-12-08T04:53:20.123Z,1.58
2022-12-08T04:56:21.921Z,1.58
2022-12-08T04:59:23.535Z,1.58
2022-12-08T05:02:25.091Z,1.57
2022-12-08T05:05:26.673Z,1.57
2022-12-08T05:08:30.045Z,1.56
2022-12-08T05:11:31.738Z,1.59
2022-12-08T05:14:33.536Z,1.61
2022-12-08T05:17:35.346Z,1.62
2022-12-08T05:20:37.442Z,1.61
2022-12-08T05:23:43.459Z,1.62
2022-12-08T05:26:45.063Z,1.62
2022-12-08T05:29:48.114Z,1.61
2022-12-08T05:32:49.933Z,1.62
2022-12-08T05:35:51.614Z,1.61
2022-12-08T05:38:56.960Z,1.60
2022-12-08T05:41:59.627Z,1.60
2022-12-08T05:45:01.241Z,1.60
2022-12-08T05:48:03.114Z,1.58
2022-12-08T05:51:05.034Z,1.57
2022-12-08T05:54:07.992Z,1.56
2022-12-08T05:57:09.651Z,1.57
2022-12-08T06:00:11.705Z,1.55
2022-12-08T06:03:17.515Z,1.54
2022-12-08T06:06:19.310Z,1.52
2022-12-08T06:09:22.288Z,1.50
2022-12-08T06:12:24.389Z,1.45
2022-12-08T06:15:26.165Z,1.37
2022-12-08T06:18:32.578Z,1.33
2022-12-08T06:21:34.971Z,1.27
2022-12-08T06:24:38.206Z,1.16
2022-12-08T06:27:40.227Z,1.11
2022-12-08T06:30:42.752Z,1.09
2022-12-08T06:33:45.034Z,1.08
2022-12-08T06:36:46.810Z,1.07
2022-12-08T06:39:50.077Z,1.06
2022-12-08T06:42:51.642Z,1.04
2022-12-08T06:45:53.521Z,1.03
2022-12-08T06:48:55.188Z,1.03
2022-12-08T06:51:56.853Z,1.01
2022-12-08T06:54:59.986Z,0.99
2022-12-08T06:58:01.542Z,0.99
2022-12-08T07:01:06.970Z,0.95
2022-12-08T07:04:08.783Z,0.92
2022-12-08T07:07:13.632Z,0.92
2022-12-08T07:10:16.822Z,0.93
2022-12-08T07:13:18.598Z,0.96
2022-12-08T07:16:20.726Z,0.97
2022-12-08T07:19:22.403Z,0.97
2022-12-08T07:22:24.120Z,0.99
2022-12-08T07:25:27.773Z,0.99
2022-12-08T07:28:30.183Z,1.00
2022-12-08T07:31:31.910Z,1.00
2022-12-08T07:34:33.759Z,1.03
2022-12-08T07:37:35.980Z,1.05
2022-12-08T07:40:39.867Z,1.05
2022-12-08T07:43:42.041Z,1.06
2022-12-08T07:46:43.890Z,1.07
2022-12-08T07:49:45.566Z,1.09
2022-12-08T07:52:47.232Z,1.09
2022-12-08T07:55:50.409Z,1.09
2022-12-08T07:58:52.167Z,1.08
2022-12-08T08:02:13.533Z,1.09
2022-12-08T08:05:15.783Z,1.09
2022-12-08T08:08:18.042Z,1.10
2022-12-08T08:11:21.891Z,1.11
2022-12-08T08:14:23.620Z,1.14
2022-12-08T08:17:25.336Z,1.16
2022-12-08T08:20:27.451Z,1.15
2022-12-08T08:23:29.204Z,1.16
2022-12-08T08:26:32.327Z,1.14
2022-12-08T08:29:33.969Z,1.13
2022-12-08T08:32:35.833Z,1.11
2022-12-08T08:35:37.747Z,1.12
2022-12-08T08:38:42.960Z,1.14
2022-12-08T08:41:46.447Z,1.13
2022-12-08T08:44:50.653Z,1.13
2022-12-08T08:47:53.459Z,1.11
2022-12-08T08:50:55.254Z,1.12
2022-12-08T08:53:57.112Z,1.11
2022-12-08T08:57:01.144Z,1.08
2022-12-08T09:00:04.246Z,1.12
2022-12-08T09:03:06.150Z,1.14
2022-12-08T09:06:07.816Z,1.14
2022-12-08T09:09:09.819Z,1.12
2022-12-08T09:12:13.523Z,1.13
2022-12-08T09:15:15.318Z,1.11
2022-12-08T09:18:16.883Z,1.08
2022-12-08T09:21:22.899Z,1.02
2022-12-08T09:24:24.918Z,1.05
2022-12-08T09:27:28.059Z,1.02
2022-12-08T09:30:29.696Z,1.03
2022-12-08T09:33:31.953Z,1.06
2022-12-08T09:36:37.098Z,1.06
2022-12-08T09:39:40.053Z,1.05
2022-12-08T09:42:46.781Z,1.04
2022-12-08T09:45:48.740Z,1.07
2022-12-08T09:48:55.647Z,1.09
2022-12-08T09:51:57.651Z,1.09
2022-12-08T09:55:00.436Z,1.11
2022-12-08T09:58:17.952Z,1.11
2022-12-08T10:01:20.457Z,1.15
2022-12-08T10:04:23.813Z,1.18
2022-12-08T10:07:30.934Z,1.22
2022-12-08T10:10:37.878Z,1.24
2022-12-08T10:13:43.958Z,1.27
2022-12-08T10:16:48.541Z,1.29
2022-12-08T10:19:54.184Z,1.28
2022-12-08T10:22:58.773Z,1.25
2022-12-08T10:26:02.040Z,1.31
2022-12-08T10:29:14.986Z,1.33
2022-12-08T10:32:18.574Z,1.37
2022-12-08T10:35:21.260Z,1.34
2022-12-08T10:38:23.759Z,1.32
2022-12-08T10:41:25.433Z,1.34
2022-12-08T10:44:28.979Z,1.35
2022-12-08T10:47:35.238Z,1.36
2022-12-08T10:50:41.462Z,1.37
2022-12-08T10:53:45.257Z,1.39
2022-12-08T10:56:53.165Z,1.38
2022-12-08T10:59:56.523Z,1.43
2022-12-08T11:02:59.439Z,1.47
2022-12-08T11:06:08.906Z,1.44
2022-12-08T11:09:36.757Z,1.51
2022-12-08T11:12:38.505Z,1.51
2022-12-08T11:15:41.704Z,1.55
2022-12-08T11:18:43.956Z,1.50
2022-12-08T11:21:46.014Z,1.57
2022-12-08T11:24:56.441Z,1.55
2022-12-08T11:27:59.083Z,1.55
2022-12-08T11:31:05.237Z,1.56
2022-12-08T11:34:09.980Z,1.58
2022-12-08T11:37:16.136Z,1.55
2022-12-08T11:40:21.215Z,1.56
2022-12-08T11:43:26.784Z,1.58
2022-12-08T11:46:34.824Z,1.59
2022-12-08T11:49:38.085Z,1.63
2022-12-08T11:52:45.166Z,1.68
2022-12-08T11:55:50.233Z,1.63
2022-12-08T11:58:54.834Z,1.63
2022-12-08T12:01:59.403Z,1.73
2022-12-08T12:05:02.594Z,1.72
2022-12-08T12:08:09.225Z,1.72
2022-12-08T12:11:35.529Z,1.80
2022-12-08T12:14:50.741Z,1.83
2022-12-08T12:17:57.265Z,1.84
2022-12-08T12:21:02.139Z,1.86
2022-12-08T12:24:05.860Z,1.84
2022-12-08T12:27:20.303Z,1.87
2022-12-08T12:30:26.503Z,1.92
2022-12-08T12:33:30.279Z,1.88
2022-12-08T12:36:32.889Z,1.92
2022-12-08T12:39:45.946Z,1.87
2022-12-08T12:42:51.556Z,1.82
2022-12-08T12:46:14.915Z,1.87
2022-12-08T12:49:35.369Z,1.84
2022-12-08T12:52:42.678Z,1.85
2022-12-08T12:55:54.612Z,1.80
2022-12-08T12:58:56.192Z,1.79
2022-12-08T13:01:58.283Z,1.82
2022-12-08T13:05:02.512Z,1.81
2022-12-08T13:08:08.058Z,1.73
2022-12-08T13:11:10.434Z,1.72
2022-12-08T13:14:24.219Z,1.74
2022-12-08T13:17:27.507Z,1.73
2022-12-08T13:20:29.508Z,1.77
2022-12-08T13:23:46.277Z,1.85
2022-12-08T13:26:48.947Z,1.85
2022-12-08T13:30:17.018Z,1.80
2022-12-08T13:33:22.427Z,1.76
2022-12-08T13:36:25.882Z,1.77
2022-12-08T13:39:32.448Z,1.76
2022-12-08T13:42:36.662Z,1.76
2022-12-08T13:46:31.794Z,1.80
2022-12-08T13:56:59.698Z,1.73
2022-12-08T13:59:28.296Z,1.69
2022-12-08T14:02:33.174Z,1.69
2022-12-08T14:06:10.381Z,1.67
2022-12-08T14:09:08.735Z,1.66
2022-12-08T14:12:18.090Z,1.66
2022-12-08T14:15:22.700Z,1.66
2022-12-08T14:18:26.110Z,1.65
2022-12-08T14:21:32.798Z,1.63
2022-12-08T14:24:37.819Z,1.63
2022-12-08T14:27:39.635Z,1.63
2022-12-08T14:30:42.887Z,1.63
2022-12-08T14:33:44.825Z,1.62
2022-12-08T14:36:46.558Z,1.59
2022-12-08T14:39:48.885Z,1.56
2022-12-08T14:42:51.667Z,1.55
2022-12-08T14:45:57.364Z,1.52
2022-12-08T14:48:59.821Z,1.49
2022-12-08T14:52:02.348Z,1.44
2022-12-08T14:55:07.627Z,1.43
2022-12-08T14:58:16.809Z,1.41
2022-12-08T15:01:22.556Z,1.40
2022-12-08T15:04:25.774Z,1.38
2022-12-08T15:07:28.635Z,1.36
2022-12-08T15:10:32.111Z,1.33
2022-12-08T15:13:33.863Z,1.32
2022-12-08T15:16:40.330Z,1.30
2022-12-08T15:19:42.291Z,1.29
2022-12-08T15:22:44.026Z,1.28
2022-12-08T15:25:46.207Z,1.27
2022-12-08T15:28:48.021Z,1.26
2022-12-08T15:31:52.478Z,1.23
2022-12-08T15:34:54.556Z,1.23
2022-12-08T15:37:56.544Z,1.23
2022-12-08T15:41:01.158Z,1.25
2022-12-08T15:44:03.104Z,1.22
2022-12-08T15:47:06.553Z,1.19
2022-12-08T15:50:14.183Z,1.17
2022-12-08T15:53:16.131Z,1.17
2022-12-08T15:56:27.374Z,1.18
2022-12-08T15:59:31.200Z,1.16
2022-12-08T16:02:56.369Z,1.14
2022-12-08T16:06:39.075Z,1.15
2022-12-08T16:09:20.784Z,1.13
2022-12-08T16:16:05.870Z,1.14
2022-12-08T16:19:13.526Z,1.12
2022-12-08T16:22:52.449Z,1.15
2022-12-08T16:26:15.559Z,1.18
2022-12-08T16:29:00.999Z,1.18
2022-12-08T16:32:02.925Z,1.20
2022-12-08T16:35:07.004Z,1.20
2022-12-08T16:38:11.984Z,1.20
2022-12-08T16:41:37.954Z,1.19
2022-12-08T16:44:41.232Z,1.16
2022-12-08T16:47:43.799Z,1.12
2022-12-08T16:50:46.930Z,1.07
2022-12-08T16:53:48.450Z,1.06
2022-12-08T16:56:50.080Z,1.03
2022-12-08T16:59:51.666Z,0.98
2022-12-08T17:02:53.962Z,0.98
2022-12-08T17:05:56.944Z,0.94
2022-12-08T17:08:59.499Z,0.96
2022-12-08T17:12:03.933Z,1.02
2022-12-08T17:15:07.924Z,1.05
2022-12-08T17:18:09.819Z,1.05
2022-12-08T17:21:13.956Z,1.01
2022-12-08T17:24:20.231Z,1.01
2022-12-08T17:27:23.477Z,0.98
2022-12-08T17:30:25.150Z,0.96
2022-12-08T17:33:27.045Z,0.94
2022-12-08T17:36:30.497Z,0.98
2022-12-08T17:39:32.153Z,0.97
2022-12-08T17:42:34.133Z,0.97
2022-12-08T17:45:39.812Z,0.91
2022-12-08T17:48:41.426Z,0.91
2022-12-08T17:51:45.348Z,0.91
2022-12-08T17:54:46.949Z,0.92
2022-12-08T17:57:48.508Z,0.95
2022-12-08T18:00:50.965Z,0.94
2022-12-08T18:03:52.578Z,0.95
2022-12-08T18:06:58.252Z,0.97
2022-12-08T18:09:59.909Z,1.00
2022-12-08T18:13:01.963Z,1.01
2022-12-08T18:16:03.677Z,0.98
2022-12-08T18:19:05.696Z,0.98
2022-12-08T18:22:09.257Z,0.97
2022-12-08T18:25:12.161Z,0.95
2022-12-08T18:28:13.905Z,0.92
2022-12-08T18:31:17.609Z,0.92
2022-12-08T18:34:19.672Z,0.90
2022-12-08T18:37:22.897Z,0.93
2022-12-08T18:40:24.605Z,0.93
2022-12-08T18:43:26.472Z,0.88
2022-12-08T18:46:28.256Z,0.86
2022-12-08T18:49:33.200Z,0.86
2022-12-08T18:52:36.207Z,0.86
2022-12-08T18:55:37.879Z,0.81
2022-12-08T18:58:39.701Z,0.74
2022-12-08T19:01:42.053Z,0.70
2022-12-08T19:04:46.252Z,0.68
2022-12-08T19:07:49.622Z,0.66
2022-12-08T19:10:51.313Z,0.69
2022-12-08T19:13:53.692Z,0.69
2022-12-08T19:16:55.641Z,0.73
2022-12-08T19:19:57.450Z,0.76
2022-12-08T19:23:00.475Z,0.75
2022-12-08T19:26:02.425Z,0.70
2022-12-08T19:29:04.184Z,0.72
2022-12-08T19:32:05.954Z,0.72
2022-12-08T19:35:08.229Z,0.70
2022-12-08T19:38:11.244Z,0.68
2022-12-08T19:41:31.662Z,0.60
2022-12-08T19:44:52.034Z,0.58
2022-12-08T19:47:53.612Z,0.56
2022-12-08T19:50:55.472Z,0.53
2022-12-08T19:53:58.570Z,0.56
2022-12-08T19:57:00.287Z,0.60
2022-12-08T20:00:01.906Z,0.68
2022-12-08T20:03:04.263Z,0.63
2022-12-08T20:06:06.151Z,0.56
2022-12-08T20:09:10.483Z,0.50
2022-12-08T20:12:12.270Z,0.50
2022-12-08T20:15:15.151Z,0.49
2022-12-08T20:18:17.028Z,0.44
2022-12-08T20:21:19.336Z,0.36
2022-12-08T20:24:22.575Z,0.28
2022-12-08T20:27:24.511Z,0.22
2022-12-08T20:30:26.499Z,0.20
2022-12-08T20:33:28.894Z,0.14
2022-12-08T20:36:31.399Z,0.15
2022-12-08T20:39:34.394Z,0.20
2022-12-08T20:42:36.043Z,0.15
2022-12-08T20:45:37.770Z,0.08
2022-12-08T20:48:39.711Z,0.06
2022-12-08T20:51:42.128Z,0.03
2022-12-08T20:54:45.320Z,0.06
2022-12-08T20:57:47.100Z,0.02
2022-12-08T21:00:49.231Z,0.00
2022-12-08T21:03:51.644Z,-0.02
2022-12-08T21:06:53.635Z,0.01
2022-12-08T21:09:56.924Z,0.05
2022-12-08T21:12:58.927Z,0.05
2022-12-08T21:16:01.444Z,0.01
2022-12-08T21:19:05.787Z,-0.02
2022-12-08T21:22:07.649Z,-0.02
2022-12-08T21:25:10.932Z,-0.03
2022-12-08T21:28:12.990Z,0.01
2022-12-08T21:31:16.486Z,0.07
2022-12-08T21:34:18.568Z,0.10
2022-12-08T21:37:20.407Z,0.14
2022-12-08T21:40:23.576Z,0.11
2022-12-08T21:43:25.483Z,0.07
2022-12-08T21:46:27.478Z,0.02
2022-12-08T21:49:30.154Z,-0.06
2022-12-08T21:52:31.921Z,-0.11
2022-12-08T21:55:35.331Z,-0.11
2022-12-08T21:58:37.327Z,-0.14
2022-12-08T22:01:39.512Z,-0.19
2022-12-08T22:04:41.332Z,-0.19
2022-12-08T22:07:43.764Z,-0.19
2022-12-08T22:10:48.927Z,-0.17
2022-12-08T22:13:50.809Z,-0.16
2022-12-08T22:16:52.969Z,-0.18
2022-12-08T22:19:54.826Z,-0.21
2022-12-08T22:22:56.745Z,-0.16
2022-12-08T22:26:00.891Z,-0.13
2022-12-08T22:29:02.892Z,-0.11
2022-12-08T22:32:05.152Z,-0.11
2022-12-08T22:35:07.376Z,-0.08
2022-12-08T22:38:09.145Z,-0.06
2022-12-08T22:41:12.464Z,-0.10
2022-12-08T22:44:15.146Z,-0.11
2022-12-08T22:47:20.015Z,-0.10
2022-12-08T22:50:21.955Z,-0.08
2022-12-08T22:53:23.738Z,-0.10
2022-12-08T22:56:26.778Z,-0.14
2022-12-08T22:59:28.807Z,-0.18
2022-12-08T23:02:30.506Z,-0.17
2022-12-08T23:05:33.482Z,-0.11
2022-12-08T23:08:35.890Z,-0.06
2022-12-08T23:11:39.188Z,0.04
2022-12-08T23:14:41.047Z,0.03
2022-12-08T23:17:42.919Z,0.07
2022-12-08T23:20:44.681Z,0.06
2022-12-08T23:23:47.282Z,0.02
2022-12-08T23:26:50.254Z,0.02
2022-12-08T23:29:51.892Z,0.06
2022-12-08T23:32:54.606Z,0.18
2022-12-08T23:35:58.608Z,0.26
2022-12-08T23:39:00.754Z,0.23
2022-12-08T23:42:04.862Z,0.16
2022-12-08T23:45:08.939Z,0.21
2022-12-08T23:48:10.925Z,0.23
2022-12-08T23:51:12.786Z,0.22
2022-12-08T23:54:15.033Z,0.27
2022-12-08T23:57:18.169Z,0.23
